Time;durP1;ratioP1;P1;durP2;ratioP2;P2;SDS_P1;SDS_P2;PMS_P1;PMS_P2;Temp;Humidity;BMP_temperature;BMP_pressure;BME280_temperature;BME280_humidity;BME280_pressure;Samples;Min_cycle;Max_cycle;Signal;HPM_P1;HPM_P2
2022/09/13 00:01:06;;;;;;;17.52;13.38;;;18.30;99.90;;;;;;5034585;28;20102;-86
2022/09/13 00:03:32;;;;;;;20.02;14.68;;;18.30;99.90;;;;;;5038397;28;20041;-86
2022/09/13 00:06:10;;;;;;;19.52;14.50;;;18.30;99.90;;;;;;5008637;28;20041;-85
2022/09/13 00:08:36;;;;;;;20.08;13.75;;;18.30;99.90;;;;;;5062795;28;20037;-85
2022/09/13 00:11:02;;;;;;;20.02;15.38;;;18.30;99.90;;;;;;5061582;28;20133;-85
2022/09/13 00:13:28;;;;;;;18.95;15.60;;;18.30;99.90;;;;;;5063240;28;20036;-84
2022/09/13 00:15:54;;;;;;;18.70;15.02;;;18.30;99.90;;;;;;5052528;28;20119;-85
2022/09/13 00:18:20;;;;;;;19.95;16.15;;;18.30;99.90;;;;;;5059584;28;20064;-85
2022/09/13 00:20:46;;;;;;;22.40;16.30;;;18.10;99.90;;;;;;5077313;28;20029;-85
2022/09/13 00:23:12;;;;;;;21.73;16.52;;;18.20;99.90;;;;;;5082248;28;20049;-84
2022/09/13 00:25:38;;;;;;;24.08;16.75;;;18.30;99.90;;;;;;5047466;28;20025;-85
2022/09/13 00:28:04;;;;;;;19.88;15.52;;;18.20;99.90;;;;;;5049449;28;20032;-84
2022/09/13 00:30:30;;;;;;;21.67;17.27;;;18.20;99.90;;;;;;5039298;28;20039;-85
2022/09/13 00:32:56;;;;;;;19.67;16.15;;;18.30;99.90;;;;;;5061722;28;20093;-85
2022/09/13 00:35:22;;;;;;;19.90;17.27;;;18.20;99.90;;;;;;5042675;28;20036;-85
2022/09/13 00:37:48;;;;;;;23.95;18.10;;;18.30;99.90;;;;;;5023184;28;20048;-85
2022/09/13 00:40:14;;;;;;;22.08;18.38;;;18.30;99.90;;;;;;5049050;28;20124;-85
2022/09/13 00:42:40;;;;;;;20.20;15.90;;;18.20;99.90;;;;;;5057668;28;20643;-85
2022/09/13 00:45:09;;;;;;;21.10;17.05;;;18.20;99.90;;;;;;5006246;28;20037;-85
2022/09/13 00:47:53;;;;;;;20.80;16.52;;;18.20;99.90;;;;;;5049718;28;20161;-86
2022/09/13 00:50:38;;;;;;;19.58;17.15;;;18.20;99.90;;;;;;5059261;28;20055;-85
2022/09/13 00:53:05;;;;;;;22.58;17.17;;;18.20;99.90;;;;;;5061961;28;20400;-85
2022/09/13 00:55:40;;;;;;;21.27;16.70;;;18.20;99.90;;;;;;5038298;28;20041;-84
2022/09/13 00:58:12;;;;;;;22.98;17.88;;;18.20;99.90;;;;;;5050490;28;20059;-84
2022/09/13 01:00:39;;;;;;;18.92;15.63;;;18.20;99.90;;;;;;5051208;28;20074;-85
2022/09/13 01:03:10;;;;;;;21.13;17.05;;;18.20;99.90;;;;;;5041646;28;20051;-85
2022/09/13 01:05:41;;;;;;;22.42;17.73;;;18.30;99.90;;;;;;5073554;28;20103;-85
2022/09/13 01:08:11;;;;;;;21.30;17.30;;;18.30;99.90;;;;;;5068395;28;20771;-85
2022/09/13 01:10:40;;;;;;;17.83;14.98;;;18.30;99.90;;;;;;5037087;28;20038;-85
2022/09/13 01:13:13;;;;;;;20.13;16.52;;;18.20;99.90;;;;;;5025337;28;20032;-85
2022/09/13 01:15:40;;;;;;;22.40;15.50;;;18.30;99.90;;;;;;5049129;28;20102;-85
2022/09/13 01:18:08;;;;;;;20.50;15.93;;;18.30;99.90;;;;;;5023618;28;20040;-85
2022/09/13 01:21:08;;;;;;;21.27;17.38;;;18.20;99.90;;;;;;5030903;28;20033;-85
2022/09/13 01:24:12;;;;;;;20.63;15.98;;;18.30;99.90;;;;;;5073214;28;20497;-85
2022/09/13 01:27:08;;;;;;;20.98;16.52;;;18.20;99.90;;;;;;5039387;28;20480;-85
2022/09/13 01:30:11;;;;;;;22.55;17.63;;;18.20;99.90;;;;;;5068364;28;20035;-85
2022/09/13 01:33:04;;;;;;;20.45;17.27;;;18.20;99.90;;;;;;5051493;28;20425;-85
2022/09/13 01:35:51;;;;;;;22.58;16.92;;;18.20;99.90;;;;;;5050515;28;20041;-85
2022/09/13 01:38:43;;;;;;;23.70;16.83;;;18.20;99.90;;;;;;5050453;28;20040;-85
2022/09/13 01:41:31;;;;;;;20.83;15.73;;;18.10;99.90;;;;;;5052553;28;20598;-85
2022/09/13 01:44:23;;;;;;;20.95;15.95;;;18.10;99.90;;;;;;5067839;28;20074;-85
2022/09/13 01:47:03;;;;;;;19.75;15.35;;;18.10;99.90;;;;;;5040543;28;20485;-85
2022/09/13 01:49:40;;;;;;;20.48;15.90;;;18.10;99.90;;;;;;5057243;28;20044;-85
2022/09/13 01:52:15;;;;;;;22.83;16.42;;;18.10;99.90;;;;;;5051368;28;20040;-84
2022/09/13 01:54:50;;;;;;;20.70;16.35;;;18.10;99.90;;;;;;5061120;28;20037;-84
2022/09/13 01:57:19;;;;;;;19.30;15.93;;;18.10;99.90;;;;;;5051405;28;20119;-84
2022/09/13 01:59:59;;;;;;;21.00;16.40;;;18.10;99.90;;;;;;5055026;28;20040;-85
2022/09/13 02:02:38;;;;;;;17.02;15.15;;;18.10;99.90;;;;;;5070984;28;20032;-85
2022/09/13 02:05:12;;;;;;;18.02;14.85;;;18.10;99.90;;;;;;5058046;28;20066;-85
2022/09/13 02:07:41;;;;;;;19.50;16.02;;;18.10;99.90;;;;;;5048307;28;20041;-85
2022/09/13 02:10:13;;;;;;;20.27;15.10;;;18.10;99.90;;;;;;5068165;28;20041;-85
2022/09/13 02:12:42;;;;;;;18.02;15.00;;;18.10;99.90;;;;;;5040088;28;20046;-85
2022/09/13 02:15:16;;;;;;;18.20;15.40;;;18.10;99.90;;;;;;5038754;28;20084;-85
2022/09/13 02:18:06;;;;;;;20.63;15.38;;;18.10;99.90;;;;;;5045186;28;20124;-85
2022/09/13 02:20:36;;;;;;;17.83;14.77;;;18.10;99.90;;;;;;5030305;28;20127;-85
2022/09/13 02:23:07;;;;;;;18.33;15.50;;;18.10;99.90;;;;;;5053415;28;20529;-84
2022/09/13 02:25:36;;;;;;;18.02;15.15;;;18.10;99.90;;;;;;5034047;28;20124;-85
2022/09/13 02:28:08;;;;;;;19.65;16.17;;;18.10;99.90;;;;;;5037971;28;20115;-85
2022/09/13 02:30:39;;;;;;;19.33;15.70;;;18.10;99.90;;;;;;5053181;28;20089;-85
2022/09/13 02:33:28;;;;;;;20.08;15.90;;;18.10;99.90;;;;;;5051282;28;20040;-85
2022/09/13 02:36:07;;;;;;;16.30;14.15;;;18.10;99.90;;;;;;5039503;28;20082;-85
2022/09/13 02:38:40;;;;;;;18.17;14.90;;;18.10;99.90;;;;;;5050756;28;20040;-85
2022/09/13 02:41:26;;;;;;;20.67;15.02;;;18.10;99.90;;;;;;5055606;28;20045;-85
2022/09/13 02:44:03;;;;;;;;;;;18.10;99.90;;;;;;5054374;28;20078;-85
2022/09/13 02:46:47;;;;;;;;;;;18.00;99.90;;;;;;5051163;28;19999;-85
2022/09/13 02:49:32;;;;;;;17.63;14.35;;;18.00;99.90;;;;;;5048888;28;19917;-85
2022/09/13 02:52:04;;;;;;;18.52;14.93;;;18.00;99.90;;;;;;5056173;28;20045;-85
2022/09/13 02:54:49;;;;;;;18.63;15.30;;;18.00;99.90;;;;;;5037297;28;20119;-84
2022/09/13 02:57:37;;;;;;;19.52;16.60;;;18.00;99.90;;;;;;5051277;28;20032;-85
2022/09/13 03:00:03;;;;;;;21.40;16.40;;;18.00;99.90;;;;;;5052838;28;20043;-85
2022/09/13 03:02:32;;;;;;;21.52;16.25;;;18.00;99.90;;;;;;5017026;28;20052;-85
2022/09/13 03:04:59;;;;;;;19.15;16.25;;;18.00;99.90;;;;;;5039760;28;20048;-84
2022/09/13 03:07:25;;;;;;;24.15;17.88;;;18.00;99.90;;;;;;5040485;28;20033;-85
2022/09/13 03:09:58;;;;;;;23.35;17.13;;;18.00;99.90;;;;;;5055970;28;21043;-85
2022/09/13 03:12:33;;;;;;;22.75;18.13;;;18.00;99.90;;;;;;5048466;28;20675;-85
2022/09/13 03:15:14;;;;;;;21.67;18.13;;;18.00;99.90;;;;;;5070446;28;20127;-85
2022/09/13 03:18:08;;;;;;;24.17;18.17;;;18.00;99.90;;;;;;5030714;28;20052;-85
2022/09/13 03:20:33;;;;;;;22.42;17.85;;;18.00;99.90;;;;;;5042735;28;20123;-85
2022/09/13 03:23:08;;;;;;;23.48;17.95;;;18.00;99.90;;;;;;5054746;28;20603;-85
2022/09/13 03:25:55;;;;;;;25.73;19.00;;;18.00;99.90;;;;;;5029701;28;20037;-85
2022/09/13 03:28:33;;;;;;;25.00;18.17;;;18.00;99.90;;;;;;5050155;28;20392;-85
2022/09/13 03:31:08;;;;;;;21.88;17.92;;;18.00;99.90;;;;;;5053443;28;20492;-85
2022/09/13 03:34:12;;;;;;;24.17;17.87;;;18.00;99.90;;;;;;5048301;28;20048;-85
2022/09/13 03:36:52;;;;;;;26.10;18.58;;;18.00;99.90;;;;;;5044801;28;20283;-85
2022/09/13 03:39:27;;;;;;;26.13;19.80;;;18.00;99.90;;;;;;5048767;28;20036;-85
2022/09/13 03:41:56;;;;;;;23.80;18.98;;;18.00;99.90;;;;;;5052421;28;20436;-85
2022/09/13 03:44:25;;;;;;;24.20;19.23;;;18.00;99.90;;;;;;5046642;28;20088;-85
2022/09/13 03:46:57;;;;;;;25.77;20.00;;;18.00;99.90;;;;;;5037128;28;20614;-85
2022/09/13 03:49:25;;;;;;;21.52;19.23;;;18.00;99.90;;;;;;5033646;28;20032;-85
2022/09/13 03:51:51;;;;;;;24.63;18.30;;;18.00;99.90;;;;;;5020173;28;20075;-85
2022/09/13 03:54:23;;;;;;;26.05;19.75;;;18.00;99.90;;;;;;5033350;28;20048;-85
2022/09/13 03:57:08;;;;;;;22.55;18.73;;;18.00;99.90;;;;;;5029601;28;20183;-85
2022/09/13 03:59:37;;;;;;;23.02;18.63;;;18.00;99.90;;;;;;5026720;28;20428;-84
2022/09/13 04:02:03;;;;;;;22.92;18.50;;;18.00;99.90;;;;;;5045062;28;20020;-85
2022/09/13 04:04:29;;;;;;;24.10;18.33;;;18.00;99.90;;;;;;5053110;28;20174;-85
2022/09/13 04:06:55;;;;;;;27.25;19.30;;;18.00;99.90;;;;;;5064373;28;20093;-85
2022/09/13 04:09:22;;;;;;;24.17;18.88;;;18.00;99.90;;;;;;5008474;28;20036;-85
2022/09/13 04:11:47;;;;;;;23.08;19.23;;;18.00;99.90;;;;;;5049979;28;20120;-85
2022/09/13 04:14:15;;;;;;;24.13;18.70;;;18.00;99.90;;;;;;5025719;28;20126;-84
2022/09/13 04:16:41;;;;;;;23.48;18.42;;;18.00;99.90;;;;;;5036313;28;20539;-85
2022/09/13 04:19:06;;;;;;;24.92;18.77;;;18.00;99.90;;;;;;5054116;28;20032;-85
2022/09/13 04:21:32;;;;;;;19.95;16.85;;;18.00;99.90;;;;;;5036907;28;20106;-85
2022/09/13 04:23:58;;;;;;;20.27;16.80;;;18.00;99.90;;;;;;5024546;28;20052;-85
2022/09/13 04:26:23;;;;;;;23.45;17.17;;;18.10;99.90;;;;;;5042275;28;20037;-85
2022/09/13 04:28:52;;;;;;;20.15;16.40;;;18.00;99.90;;;;;;5027276;28;20426;-85
2022/09/13 04:31:18;;;;;;;20.70;16.50;;;18.00;99.90;;;;;;5019231;28;20056;-86
2022/09/13 04:33:44;;;;;;;24.15;17.48;;;18.00;99.90;;;;;;5034564;28;20069;-85
2022/09/13 04:36:10;;;;;;;23.10;16.95;;;18.10;99.90;;;;;;5027322;28;20045;-85
2022/09/13 04:38:36;;;;;;;20.70;16.35;;;18.00;99.90;;;;;;5042000;28;20074;-85
2022/09/13 04:41:02;;;;;;;18.02;16.00;;;18.00;99.90;;;;;;5038819;28;20045;-85
2022/09/13 04:43:28;;;;;;;23.90;16.77;;;18.00;99.90;;;;;;5037478;28;20473;-81
2022/09/13 04:45:59;;;;;;;19.65;15.95;;;18.10;99.90;;;;;;5057414;28;20043;-81
2022/09/13 04:48:25;;;;;;;18.60;16.02;;;18.10;99.90;;;;;;5039192;28;20032;-81
2022/09/13 04:50:51;;;;;;;19.25;14.73;;;18.00;99.90;;;;;;5023543;28;20123;-81
2022/09/13 04:53:17;;;;;;;20.35;14.82;;;18.00;99.90;;;;;;5039411;28;20052;-81
2022/09/13 04:55:43;;;;;;;19.52;15.15;;;18.00;99.90;;;;;;5056422;28;20040;-81
2022/09/13 04:58:09;;;;;;;19.55;14.85;;;18.00;99.90;;;;;;5039263;28;20049;-81
2022/09/13 05:00:35;;;;;;;17.83;13.60;;;18.00;99.90;;;;;;5038645;28;20047;-81
2022/09/13 05:03:01;;;;;;;19.88;15.30;;;18.00;99.90;;;;;;5036971;28;20036;-81
2022/09/13 05:05:28;;;;;;;19.05;15.48;;;18.10;99.90;;;;;;5036505;28;20051;-81
2022/09/13 05:07:54;;;;;;;16.92;15.02;;;18.10;99.90;;;;;;5052240;28;20056;-81
2022/09/13 05:10:20;;;;;;;17.08;13.73;;;18.10;99.90;;;;;;5036461;28;20033;-81
2022/09/13 05:12:46;;;;;;;16.05;10.77;;;18.10;99.90;;;;;;5040079;28;20089;-80
2022/09/13 05:15:11;;;;;;;14.05;9.95;;;18.10;99.90;;;;;;5056010;28;20070;-81
2022/09/13 05:17:37;;;;;;;11.75;9.45;;;18.10;99.90;;;;;;5006258;28;20123;-81
2022/09/13 05:20:04;;;;;;;11.85;9.05;;;18.10;99.90;;;;;;5023814;28;20123;-81
2022/09/13 05:22:30;;;;;;;11.07;8.90;;;18.10;99.90;;;;;;5050821;28;20060;-81
2022/09/13 05:24:56;;;;;;;12.15;8.43;;;18.20;99.90;;;;;;5036834;28;20040;-81
2022/09/13 05:27:22;;;;;;;12.50;8.70;;;18.20;99.90;;;;;;5035755;28;20040;-81
2022/09/13 05:29:47;;;;;;;10.32;7.95;;;18.20;99.90;;;;;;5034020;28;20044;-81
2022/09/13 05:32:13;;;;;;;10.25;7.10;;;18.20;99.90;;;;;;5050199;28;20036;-81
2022/09/13 05:34:39;;;;;;;11.73;8.00;;;18.20;99.90;;;;;;5018971;28;20033;-81
2022/09/13 05:37:05;;;;;;;13.00;7.30;;;18.20;99.90;;;;;;5018634;28;20121;-81
2022/09/13 05:39:30;;;;;;;9.98;6.90;;;18.20;99.90;;;;;;5029126;28;20044;-81
2022/09/13 05:41:57;;;;;;;7.63;5.25;;;18.20;99.90;;;;;;5035014;28;20507;-81
2022/09/13 05:44:23;;;;;;;8.77;5.55;;;18.20;99.90;;;;;;5035500;28;20396;-80
2022/09/13 05:46:49;;;;;;;9.50;4.90;;;18.10;99.90;;;;;;5051899;28;20036;-83
2022/09/13 05:49:15;;;;;;;8.40;5.07;;;18.20;99.90;;;;;;5014458;28;20138;-81
2022/09/13 05:51:40;;;;;;;9.20;4.93;;;18.10;99.90;;;;;;5035408;28;20037;-81
2022/09/13 05:54:07;;;;;;;7.15;4.20;;;18.10;99.90;;;;;;5016112;28;20357;-81
2022/09/13 05:56:32;;;;;;;6.82;3.45;;;18.10;99.90;;;;;;5036556;28;20537;-81
2022/09/13 05:58:59;;;;;;;7.00;3.97;;;18.10;99.90;;;;;;5021223;28;20106;-81
2022/09/13 06:01:27;;;;;;;10.15;3.50;;;18.10;99.90;;;;;;5021032;28;20032;-81
2022/09/13 06:03:54;;;;;;;8.23;3.47;;;18.10;99.90;;;;;;5053929;28;20040;-81
2022/09/13 06:06:21;;;;;;;9.18;3.67;;;18.10;99.90;;;;;;5055205;28;20120;-80
2022/09/13 06:08:50;;;;;;;5.47;3.00;;;18.10;99.90;;;;;;5042240;28;20044;-84
2022/09/13 06:11:16;;;;;;;7.85;3.15;;;18.10;99.90;;;;;;5044200;28;20041;-79
2022/09/13 06:13:42;;;;;;;4.20;2.75;;;18.10;99.90;;;;;;5056157;28;20051;-80
2022/09/13 06:16:10;;;;;;;4.68;2.72;;;18.10;99.90;;;;;;5052894;28;20511;-80
2022/09/13 06:18:36;;;;;;;4.65;2.63;;;18.10;99.90;;;;;;5036045;28;20386;-79
2022/09/13 06:21:05;;;;;;;7.10;2.97;;;18.10;99.90;;;;;;5034315;28;20627;-80
2022/09/13 06:23:31;;;;;;;5.80;2.60;;;18.10;99.90;;;;;;5051167;28;20547;-80
2022/09/13 06:26:02;;;;;;;4.38;2.17;;;18.10;99.90;;;;;;5055536;28;20036;-81
2022/09/13 06:28:27;;;;;;;5.55;2.25;;;18.10;99.90;;;;;;5038154;28;20028;-80
2022/09/13 06:31:03;;;;;;;6.63;2.58;;;18.20;99.90;;;;;;5015647;28;20094;-81
2022/09/13 06:33:29;;;;;;;4.90;2.13;;;18.20;99.90;;;;;;5055030;28;20048;-80
2022/09/13 06:35:58;;;;;;;3.97;2.25;;;18.10;99.90;;;;;;5024501;28;20048;-80
2022/09/13 06:38:24;;;;;;;6.30;2.20;;;18.10;99.90;;;;;;5054499;28;20041;-80
2022/09/13 06:41:18;;;;;;;4.70;2.03;;;18.20;99.90;;;;;;5003905;28;20047;-79
2022/09/13 06:43:46;;;;;;;5.05;2.17;;;18.20;99.90;;;;;;5053793;28;20056;-79
2022/09/13 06:46:15;;;;;;;6.03;2.20;;;18.10;99.90;;;;;;5054811;28;20550;-79
2022/09/13 06:48:42;;;;;;;4.68;2.10;;;18.20;99.90;;;;;;5053807;28;20036;-78
2022/09/13 06:51:11;;;;;;;8.15;2.08;;;18.20;99.90;;;;;;5053189;28;20276;-80
2022/09/13 06:53:39;;;;;;;5.88;2.05;;;18.10;99.90;;;;;;5037379;28;20392;-79
2022/09/13 06:56:14;;;;;;;6.70;1.90;;;18.10;99.90;;;;;;5037950;28;20083;-80
2022/09/13 06:58:42;;;;;;;7.65;2.03;;;18.10;99.90;;;;;;5037075;28;20041;-80
2022/09/13 07:01:11;;;;;;;5.20;1.90;;;18.10;99.90;;;;;;5029973;28;20079;-80
2022/09/13 07:03:38;;;;;;;7.47;2.17;;;18.10;99.90;;;;;;5054333;28;20059;-80
2022/09/13 07:06:14;;;;;;;5.45;2.15;;;18.20;99.90;;;;;;5021893;28;20043;-81
2022/09/13 07:08:41;;;;;;;5.13;2.10;;;18.20;99.90;;;;;;5054786;28;20044;-80
2022/09/13 07:11:08;;;;;;;3.63;1.67;;;18.20;99.90;;;;;;5052479;28;20044;-81
2022/09/13 07:13:35;;;;;;;3.83;1.50;;;18.20;99.90;;;;;;5036555;28;20488;-81
2022/09/13 07:16:05;;;;;;;7.93;1.70;;;18.20;99.90;;;;;;5022040;28;20369;-80
2022/09/13 07:18:31;;;;;;;5.32;2.17;;;18.20;99.90;;;;;;5055266;28;20114;-79
2022/09/13 07:21:06;;;;;;;5.78;1.70;;;18.30;99.90;;;;;;5047335;28;20369;-80
2022/09/13 07:23:33;;;;;;;5.80;1.67;;;18.30;99.90;;;;;;5038371;28;20048;-81
2022/09/13 07:26:06;;;;;;;3.13;1.55;;;18.30;99.90;;;;;;5038228;28;20044;-81
2022/09/13 07:28:35;;;;;;;5.57;1.70;;;18.30;99.90;;;;;;5039229;28;20040;-80
2022/09/13 07:31:08;;;;;;;5.20;1.50;;;18.30;99.90;;;;;;5034063;28;20506;-81
2022/09/13 07:33:34;;;;;;;4.43;1.85;;;18.40;99.90;;;;;;5040187;28;20036;-81
2022/09/13 07:36:02;;;;;;;6.22;2.00;;;18.40;99.90;;;;;;5017421;28;20090;-81
2022/09/13 07:38:28;;;;;;;4.00;1.90;;;18.40;99.90;;;;;;5047229;28;20097;-80
2022/09/13 07:40:56;;;;;;;4.30;1.80;;;18.40;99.90;;;;;;5018381;28;20040;-80
2022/09/13 07:43:21;;;;;;;3.85;1.73;;;18.50;99.90;;;;;;5055276;28;20512;-79
2022/09/13 07:45:47;;;;;;;6.40;1.77;;;18.50;99.90;;;;;;5019422;28;20123;-80
2022/09/13 07:48:13;;;;;;;5.13;1.40;;;18.50;99.90;;;;;;5058005;28;20036;-80
2022/09/13 07:50:39;;;;;;;7.78;1.75;;;18.50;99.90;;;;;;5024673;28;20511;-80
2022/09/13 07:53:05;;;;;;;6.00;1.50;;;18.60;99.90;;;;;;5041878;28;20041;-80
2022/09/13 07:55:30;;;;;;;4.13;1.50;;;18.70;99.90;;;;;;5019494;28;20080;-80
2022/09/13 07:57:56;;;;;;;5.88;1.75;;;18.70;99.90;;;;;;5036950;28;20120;-80
2022/09/13 08:00:24;;;;;;;5.30;1.58;;;18.70;99.90;;;;;;5025968;28;20083;-80
2022/09/13 08:02:49;;;;;;;6.13;1.73;;;18.70;99.90;;;;;;5037919;28;20041;-80
2022/09/13 08:05:15;;;;;;;6.78;1.83;;;18.70;99.90;;;;;;5023672;28;20033;-79
2022/09/13 08:07:41;;;;;;;7.55;1.92;;;18.70;99.90;;;;;;5041025;28;20039;-79
2022/09/13 08:10:07;;;;;;;4.50;1.52;;;18.80;99.90;;;;;;5041670;28;20053;-80
2022/09/13 08:12:32;;;;;;;6.50;1.75;;;18.80;99.90;;;;;;5025914;28;20044;-80
2022/09/13 08:14:58;;;;;;;4.95;1.50;;;18.90;99.90;;;;;;5026083;28;20123;-80
2022/09/13 08:17:24;;;;;;;7.57;1.80;;;19.10;99.90;;;;;;5019947;28;20037;-80
2022/09/13 08:19:50;;;;;;;7.07;2.05;;;19.20;99.90;;;;;;5010260;28;20047;-80
2022/09/13 08:22:15;;;;;;;7.25;2.05;;;19.30;99.90;;;;;;5008188;28;20068;-79
2022/09/13 08:24:41;;;;;;;9.02;2.85;;;19.30;99.90;;;;;;5041765;28;20036;-79
2022/09/13 08:27:07;;;;;;;8.80;2.75;;;19.40;99.90;;;;;;5038095;28;20037;-80
2022/09/13 08:29:32;;;;;;;7.20;2.75;;;19.40;99.90;;;;;;5040667;28;20079;-80
2022/09/13 08:31:58;;;;;;;9.15;4.43;;;19.50;99.90;;;;;;5039209;28;20752;-79
2022/09/13 08:34:24;;;;;;;12.63;6.05;;;19.50;99.90;;;;;;5023759;28;20060;-80
2022/09/13 08:36:50;;;;;;;13.40;5.47;;;19.50;99.90;;;;;;5052687;28;20040;-80
2022/09/13 08:39:15;;;;;;;14.95;5.78;;;19.50;99.90;;;;;;5021899;28;20052;-80
2022/09/13 08:41:43;;;;;;;14.52;6.00;;;19.40;99.90;;;;;;5022692;28;20556;-80
2022/09/13 08:44:34;;;;;;;15.13;5.18;;;19.40;99.90;;;;;;5054122;28;20769;-79
2022/09/13 08:47:10;;;;;;;11.30;4.95;;;19.40;99.90;;;;;;5036160;28;20040;-80
2022/09/13 08:49:42;;;;;;;13.60;5.40;;;19.40;99.90;;;;;;5037838;28;20419;-80
2022/09/13 08:52:31;;;;;;;10.85;4.35;;;19.30;99.90;;;;;;5048751;28;20366;-80
2022/09/13 08:55:11;;;;;;;10.35;4.32;;;19.40;99.90;;;;;;5052192;28;20385;-79
2022/09/13 08:57:46;;;;;;;12.93;4.80;;;19.40;99.90;;;;;;5056432;28;20484;-80
2022/09/13 09:00:21;;;;;;;15.43;4.65;;;19.50;99.90;;;;;;5038275;28;20086;-80
2022/09/13 09:02:55;;;;;;;11.98;4.22;;;19.50;99.90;;;;;;5050109;28;20033;-80
2022/09/13 09:05:23;;;;;;;7.53;3.13;;;19.60;99.90;;;;;;5043805;28;20060;-81
2022/09/13 09:08:01;;;;;;;7.55;1.70;;;19.70;99.90;;;;;;5046652;28;20043;-80
2022/09/13 09:10:31;;;;;;;5.45;1.30;;;19.70;99.90;;;;;;5054864;28;20098;-80
2022/09/13 09:13:04;;;;;;;5.90;1.65;;;19.60;99.90;;;;;;5055868;28;20048;-81
2022/09/13 09:15:41;;;;;;;7.35;1.77;;;19.50;99.90;;;;;;5033860;28;20480;-80
2022/09/13 09:18:33;;;;;;;4.30;1.15;;;19.40;99.90;;;;;;5034400;28;20401;-81
2022/09/13 09:21:01;;;;;;;5.55;1.23;;;19.30;99.90;;;;;;5040141;28;20080;-80
2022/09/13 09:23:40;;;;;;;6.57;1.20;;;19.30;99.90;;;;;;5038794;28;20492;-80
2022/09/13 09:26:16;;;;;;;4.75;1.48;;;19.30;99.90;;;;;;5020477;28;20045;-80
2022/09/13 09:28:46;;;;;;;14.23;1.63;;;19.40;99.90;;;;;;5053511;28;20051;-80
2022/09/13 09:31:46;;;;;;;3.45;1.02;;;19.50;99.90;;;;;;5053563;28;20037;-80
2022/09/13 09:34:31;;;;;;;2.42;0.90;;;19.50;99.90;;;;;;5052410;28;20088;-79
2022/09/13 09:37:20;;;;;;;4.43;1.10;;;19.50;99.90;;;;;;5040402;28;20110;-81
2022/09/13 09:39:46;;;;;;;3.15;0.88;;;19.50;99.90;;;;;;5032493;28;20044;-79
2022/09/13 09:42:17;;;;;;;4.00;1.00;;;19.60;99.90;;;;;;5039730;28;20076;-80
2022/09/13 09:44:50;;;;;;;1.88;0.70;;;19.60;99.90;;;;;;5056414;28;20066;-79
2022/09/13 09:47:25;;;;;;;1.83;1.00;;;19.70;99.90;;;;;;5050834;28;20101;-80
2022/09/13 09:50:11;;;;;;;5.13;1.15;;;19.70;99.90;;;;;;5051495;28;20051;-81
2022/09/13 09:52:43;;;;;;;4.90;1.30;;;19.80;99.90;;;;;;5029069;28;20083;-80
2022/09/13 09:55:33;;;;;;;5.20;1.00;;;19.80;99.90;;;;;;5037609;28;20377;-79
2022/09/13 09:58:07;;;;;;;4.38;1.17;;;19.90;99.90;;;;;;5036591;28;20059;-80
2022/09/13 10:00:35;;;;;;;5.15;0.90;;;19.90;99.90;;;;;;5034407;28;20040;-80
2022/09/13 10:03:15;;;;;;;1.73;0.73;;;19.90;99.90;;;;;;5038512;28;20439;-80
2022/09/13 10:05:42;;;;;;;2.67;0.95;;;20.00;99.90;;;;;;5053179;28;20040;-80
2022/09/13 10:08:29;;;;;;;2.58;1.00;;;20.10;99.90;;;;;;5017575;28;20063;-80
2022/09/13 10:10:58;;;;;;;6.47;0.90;;;20.10;99.90;;;;;;5048785;28;20477;-79
2022/09/13 10:13:25;;;;;;;2.72;0.88;;;20.00;99.90;;;;;;5037484;28;20053;-80
2022/09/13 10:16:29;;;;;;;2.22;1.15;;;20.00;99.90;;;;;;5034212;28;20548;-80
2022/09/13 10:19:24;;;;;;;6.22;0.90;;;20.00;99.90;;;;;;5049527;28;20045;-81
2022/09/13 10:22:08;;;;;;;3.47;1.13;;;20.00;99.90;;;;;;5047732;28;20049;-80
2022/09/13 10:24:34;;;;;;;3.00;1.10;;;20.10;99.90;;;;;;5037365;28;20537;-80
2022/09/13 10:27:02;;;;;;;3.40;1.20;;;20.10;99.90;;;;;;5035384;28;20032;-80
2022/09/13 10:29:30;;;;;;;3.05;1.00;;;20.20;99.90;;;;;;5055992;28;20381;-80
2022/09/13 10:31:57;;;;;;;5.47;1.48;;;20.20;99.90;;;;;;5054776;28;20032;-80
2022/09/13 10:34:30;;;;;;;4.63;1.42;;;20.20;99.90;;;;;;5036880;28;20408;-80
2022/09/13 10:36:59;;;;;;;5.75;1.65;;;20.40;99.90;;;;;;5053826;28;20341;-78
2022/09/13 10:39:27;;;;;;;4.75;1.60;;;20.30;99.90;;;;;;5035355;28;20049;-79
2022/09/13 10:42:09;;;;;;;3.25;1.30;;;20.30;99.90;;;;;;5035467;28;20078;-79
2022/09/13 10:44:56;;;;;;;6.00;1.52;;;20.30;99.90;;;;;;5049187;28;20048;-80
2022/09/13 10:47:49;;;;;;;2.70;1.52;;;20.20;99.90;;;;;;5033078;28;20487;-80
2022/09/13 10:50:24;;;;;;;9.32;1.85;;;20.30;99.90;;;;;;5039170;28;20048;-80
2022/09/13 10:52:52;;;;;;;4.53;1.77;;;20.30;99.90;;;;;;5049382;28;20746;-81
2022/09/13 10:55:18;;;;;;;3.38;1.38;;;20.40;99.90;;;;;;5039037;28;20106;-81
2022/09/13 10:57:45;;;;;;;3.17;1.50;;;20.30;99.90;;;;;;5050864;28;20040;-80
2022/09/13 11:00:16;;;;;;;2.92;1.40;;;20.30;99.90;;;;;;5051253;28;20075;-81
2022/09/13 11:02:57;;;;;;;4.20;1.38;;;20.20;99.90;;;;;;5050307;28;20041;-79
2022/09/13 11:05:29;;;;;;;2.97;1.00;;;20.20;99.90;;;;;;5044301;28;20083;-79
2022/09/13 11:08:11;;;;;;;4.65;1.20;;;20.20;99.90;;;;;;5048683;28;20048;-80
2022/09/13 11:10:57;;;;;;;4.60;1.27;;;20.10;99.90;;;;;;5048745;28;20480;-79
2022/09/13 11:13:48;;;;;;;6.05;1.60;;;20.10;99.90;;;;;;5053345;28;20427;-79
2022/09/13 11:16:50;;;;;;;4.68;1.60;;;20.10;99.90;;;;;;5055043;28;20063;-80
2022/09/13 11:19:45;;;;;;;3.72;1.10;;;20.10;99.90;;;;;;5052798;28;20044;-81
2022/09/13 11:22:39;;;;;;;4.20;1.50;;;20.10;99.90;;;;;;4965586;28;20054;-80
2022/09/13 11:25:42;;;;;;;5.22;1.13;;;20.20;99.90;;;;;;5027844;28;20049;-79
2022/09/13 11:28:28;;;;;;;3.63;1.20;;;20.30;99.90;;;;;;5052219;28;20090;-80
2022/09/13 11:31:06;;;;;;;3.08;1.00;;;20.30;99.90;;;;;;5054423;28;20095;-81
2022/09/13 11:33:51;;;;;;;4.30;0.90;;;20.30;99.90;;;;;;5031829;28;20316;-80
2022/09/13 11:36:47;;;;;;;4.10;1.13;;;20.30;99.90;;;;;;5054586;28;20041;-81
2022/09/13 11:39:23;;;;;;;5.05;1.10;;;20.40;99.90;;;;;;5055874;28;20033;-81
2022/09/13 11:42:13;;;;;;;5.70;1.70;;;20.40;99.90;;;;;;5032583;28;20065;-82
2022/09/13 11:44:45;;;;;;;5.57;1.23;;;20.40;99.90;;;;;;5038149;28;20464;-82
2022/09/13 11:47:47;;;;;;;4.53;1.15;;;20.40;99.90;;;;;;5054402;28;20037;-81
2022/09/13 11:50:34;;;;;;;5.28;1.10;;;20.30;99.90;;;;;;5034433;28;20045;-82
2022/09/13 11:53:02;;;;;;;4.28;0.90;;;20.40;99.90;;;;;;5069109;28;20045;-82
2022/09/13 11:55:41;;;;;;;4.18;1.20;;;20.30;99.90;;;;;;5039389;28;20044;-81
2022/09/13 11:58:15;;;;;;;4.28;1.10;;;20.30;99.90;;;;;;5045128;28;20042;-81
2022/09/13 12:00:49;;;;;;;5.07;1.85;;;20.30;99.90;;;;;;5052326;28;20437;-81
2022/09/13 12:03:24;;;;;;;4.05;1.13;;;20.40;99.90;;;;;;5032397;28;20045;-82
2022/09/13 12:05:58;;;;;;;8.85;1.10;;;20.40;99.90;;;;;;5035975;28;20032;-84
2022/09/13 12:08:38;;;;;;;5.03;0.98;;;20.50;99.90;;;;;;5034457;28;20120;-83
2022/09/13 12:11:12;;;;;;;3.90;0.88;;;20.60;99.90;;;;;;5033149;28;20094;-81
2022/09/13 12:13:48;;;;;;;3.50;0.80;;;20.60;99.90;;;;;;5052141;28;20469;-81
2022/09/13 12:16:29;;;;;;;;;;;20.60;99.90;;;;;;5053741;28;20056;-81
2022/09/13 12:18:59;;;;;;;4.80;0.98;;;20.60;99.90;;;;;;5030665;28;19921;-82
2022/09/13 12:21:31;;;;;;;6.30;0.90;;;20.70;99.90;;;;;;5047921;28;20102;-81
2022/09/13 12:24:05;;;;;;;5.93;1.15;;;20.70;99.90;;;;;;5026062;28;20376;-81
2022/09/13 12:26:49;;;;;;;7.03;1.33;;;20.80;99.90;;;;;;5024530;28;20480;-82
2022/09/13 12:29:42;;;;;;;4.30;0.85;;;20.90;99.90;;;;;;5014790;28;20120;-82
2022/09/13 12:32:09;;;;;;;10.55;1.38;;;20.90;99.90;;;;;;5033030;28;20100;-82
2022/09/13 12:34:41;;;;;;;7.80;1.00;;;20.80;99.90;;;;;;5033839;28;20050;-82
2022/09/13 12:37:37;;;;;;;6.38;1.58;;;20.80;99.90;;;;;;5007847;28;20041;-82
2022/09/13 12:40:32;;;;;;;6.32;1.02;;;20.80;99.90;;;;;;5018277;28;20128;-83
2022/09/13 12:43:22;;;;;;;5.43;1.10;;;20.90;99.90;;;;;;5033956;28;20116;-82
2022/09/13 12:46:07;;;;;;;4.13;1.02;;;20.90;99.90;;;;;;5019452;28;20033;-80
2022/09/13 12:49:09;;;;;;;5.57;0.80;;;20.90;99.90;;;;;;5029919;28;20045;-82
2022/09/13 12:51:49;;;;;;;3.13;0.88;;;20.90;99.90;;;;;;5031232;28;20030;-82
2022/09/13 12:54:54;;;;;;;4.07;0.98;;;20.90;99.90;;;;;;5038296;28;20454;-82
2022/09/13 12:57:20;;;;;;;8.15;1.20;;;20.90;99.90;;;;;;5031844;28;20081;-82
2022/09/13 13:00:15;;;;;;;8.57;0.93;;;20.90;99.90;;;;;;5027924;28;20076;-82
2022/09/13 13:03:10;;;;;;;3.15;1.00;;;21.00;99.90;;;;;;5029327;28;20083;-81
2022/09/13 13:05:46;;;;;;;5.10;1.33;;;21.00;99.90;;;;;;5029940;28;20120;-81
2022/09/13 13:08:18;;;;;;;4.80;0.98;;;21.10;99.90;;;;;;5035697;28;20044;-82
2022/09/13 13:10:44;;;;;;;4.50;1.10;;;21.50;99.90;;;;;;5034933;28;20041;-82